sensor_id;sensor_type;location;lat;lon;timestamp;temperature;humidity
22112;DHT22;11222;50.872;4.312;2023-05-13T00:00:33;16.20;99.90
22112;DHT22;11222;50.872;4.312;2023-05-13T00:02:59;16.20;99.90
22112;DHT22;11222;50.872;4.312;2023-05-13T00:05:25;16.10;99.90
22112;DHT22;11222;50.872;4.312;2023-05-13T00:07:50;16.10;99.90
22112;DHT22;11222;50.872;4.312;2023-05-13T00:10:16;15.90;99.90
22112;DHT22;11222;50.872;4.312;2023-05-13T00:12:43;15.80;99.90
22112;DHT22;11222;50.872;4.312;2023-05-13T00:15:09;15.70;99.90
22112;DHT22;11222;50.872;4.312;2023-05-13T00:17:35;15.60;99.90
22112;DHT22;11222;50.872;4.312;2023-05-13T00:20:00;15.50;99.90
22112;DHT22;11222;50.872;4.312;2023-05-13T00:22:26;15.50;99.90
22112;DHT22;11222;50.872;4.312;2023-05-13T00:24:52;15.40;99.90
22112;DHT22;11222;50.872;4.312;2023-05-13T00:27:18;15.40;99.90
22112;DHT22;11222;50.872;4.312;2023-05-13T00:29:44;15.40;99.90
22112;DHT22;11222;50.872;4.312;2023-05-13T00:32:09;15.30;99.90
22112;DHT22;11222;50.872;4.312;2023-05-13T00:34:36;15.40;99.90
22112;DHT22;11222;50.872;4.312;2023-05-13T00:37:01;15.40;99.90
22112;DHT22;11222;50.872;4.312;2023-05-13T00:39:27;15.40;99.90
22112;DHT22;11222;50.872;4.312;2023-05-13T00:41:54;15.40;99.90
22112;DHT22;11222;50.872;4.312;2023-05-13T00:44:20;15.50;99.90
22112;DHT22;11222;50.872;4.312;2023-05-13T00:46:45;15.50;99.90
22112;DHT22;11222;50.872;4.312;2023-05-13T00:49:11;15.70;99.90
22112;DHT22;11222;50.872;4.312;2023-05-13T00:51:38;15.70;99.90
22112;DHT22;11222;50.872;4.312;2023-05-13T00:54:04;15.70;99.90
22112;DHT22;11222;50.872;4.312;2023-05-13T00:56:29;15.80;99.90
22112;DHT22;11222;50.872;4.312;2023-05-13T00:58:55;15.70;99.90
22112;DHT22;11222;50.872;4.312;2023-05-13T01:11:54;15.50;99.90
22112;DHT22;11222;50.872;4.312;2023-05-13T01:14:28;15.50;99.90
22112;DHT22;11222;50.872;4.312;2023-05-13T01:17:10;15.40;99.90
22112;DHT22;11222;50.872;4.312;2023-05-13T01:19:54;15.40;99.90
22112;DHT22;11222;50.872;4.312;2023-05-13T01:22:21;15.30;99.90
22112;DHT22;11222;50.872;4.312;2023-05-13T01:24:47;15.20;99.90
22112;DHT22;11222;50.872;4.312;2023-05-13T01:27:15;15.20;99.90
22112;DHT22;11222;50.872;4.312;2023-05-13T01:29:41;15.20;99.90
22112;DHT22;11222;50.872;4.312;2023-05-13T01:32:08;15.20;99.90
22112;DHT22;11222;50.872;4.312;2023-05-13T01:34:35;15.20;99.90
22112;DHT22;11222;50.872;4.312;2023-05-13T01:37:01;15.20;99.90
22112;DHT22;11222;50.872;4.312;2023-05-13T01:39:27;15.30;99.90
22112;DHT22;11222;50.872;4.312;2023-05-13T01:41:54;15.30;99.90
22112;DHT22;11222;50.872;4.312;2023-05-13T01:44:20;15.40;99.90
22112;DHT22;11222;50.872;4.312;2023-05-13T01:46:47;15.50;99.90
22112;DHT22;11222;50.872;4.312;2023-05-13T01:49:15;15.40;99.90
22112;DHT22;11222;50.872;4.312;2023-05-13T01:51:41;15.50;99.90
22112;DHT22;11222;50.872;4.312;2023-05-13T01:54:06;15.40;99.90
22112;DHT22;11222;50.872;4.312;2023-05-13T01:56:32;15.40;99.90
22112;DHT22;11222;50.872;4.312;2023-05-13T01:58:58;15.40;99.90
22112;DHT22;11222;50.872;4.312;2023-05-13T02:01:24;15.50;99.90
22112;DHT22;11222;50.872;4.312;2023-05-13T02:03:49;15.50;99.90
22112;DHT22;11222;50.872;4.312;2023-05-13T02:06:15;15.50;99.90
22112;DHT22;11222;50.872;4.312;2023-05-13T02:08:41;15.60;99.90
22112;DHT22;11222;50.872;4.312;2023-05-13T02:11:07;15.60;99.90
22112;DHT22;11222;50.872;4.312;2023-05-13T02:13:33;15.60;99.90
22112;DHT22;11222;50.872;4.312;2023-05-13T02:15:58;15.70;99.90
22112;DHT22;11222;50.872;4.312;2023-05-13T02:18:24;15.60;99.90
22112;DHT22;11222;50.872;4.312;2023-05-13T02:20:50;15.70;99.90
22112;DHT22;11222;50.872;4.312;2023-05-13T02:23:16;15.60;99.90
22112;DHT22;11222;50.872;4.312;2023-05-13T02:25:42;15.50;99.90
22112;DHT22;11222;50.872;4.312;2023-05-13T02:28:08;15.50;99.90
22112;DHT22;11222;50.872;4.312;2023-05-13T02:30:33;15.50;99.90
22112;DHT22;11222;50.872;4.312;2023-05-13T02:33:00;15.40;99.90
22112;DHT22;11222;50.872;4.312;2023-05-13T02:35:26;15.40;99.90
22112;DHT22;11222;50.872;4.312;2023-05-13T02:37:55;15.30;99.90
22112;DHT22;11222;50.872;4.312;2023-05-13T02:40:21;15.30;99.90
22112;DHT22;11222;50.872;4.312;2023-05-13T02:42:46;15.30;99.90
22112;DHT22;11222;50.872;4.312;2023-05-13T02:45:12;15.30;99.90
22112;DHT22;11222;50.872;4.312;2023-05-13T02:47:37;15.30;99.90
22112;DHT22;11222;50.872;4.312;2023-05-13T02:50:05;15.30;99.90
22112;DHT22;11222;50.872;4.312;2023-05-13T02:52:32;15.20;99.90
22112;DHT22;11222;50.872;4.312;2023-05-13T02:55:00;15.20;99.90
22112;DHT22;11222;50.872;4.312;2023-05-13T02:57:26;15.20;99.90
22112;DHT22;11222;50.872;4.312;2023-05-13T02:59:52;15.30;99.90
22112;DHT22;11222;50.872;4.312;2023-05-13T03:02:18;15.20;99.90
22112;DHT22;11222;50.872;4.312;2023-05-13T03:04:43;15.40;99.90
22112;DHT22;11222;50.872;4.312;2023-05-13T03:07:09;15.40;99.90
22112;DHT22;11222;50.872;4.312;2023-05-13T03:09:35;15.40;99.90
22112;DHT22;11222;50.872;4.312;2023-05-13T03:12:04;15.40;99.90
22112;DHT22;11222;50.872;4.312;2023-05-13T03:14:30;15.40;99.90
22112;DHT22;11222;50.872;4.312;2023-05-13T03:16:56;15.30;99.90
22112;DHT22;11222;50.872;4.312;2023-05-13T03:19:22;15.30;99.90
22112;DHT22;11222;50.872;4.312;2023-05-13T03:21:48;15.30;99.90
22112;DHT22;11222;50.872;4.312;2023-05-13T03:24:14;15.30;99.90
22112;DHT22;11222;50.872;4.312;2023-05-13T03:26:40;15.30;99.90
22112;DHT22;11222;50.872;4.312;2023-05-13T03:29:05;15.30;99.90
22112;DHT22;11222;50.872;4.312;2023-05-13T03:31:31;15.30;99.90
22112;DHT22;11222;50.872;4.312;2023-05-13T03:33:57;15.40;99.90
22112;DHT22;11222;50.872;4.312;2023-05-13T03:36:23;15.40;99.90
22112;DHT22;11222;50.872;4.312;2023-05-13T03:38:48;15.30;99.90
22112;DHT22;11222;50.872;4.312;2023-05-13T03:41:14;15.30;99.90
22112;DHT22;11222;50.872;4.312;2023-05-13T03:43:42;15.20;99.90
22112;DHT22;11222;50.872;4.312;2023-05-13T03:46:09;15.10;99.90
22112;DHT22;11222;50.872;4.312;2023-05-13T03:48:34;15.10;99.90
22112;DHT22;11222;50.872;4.312;2023-05-13T03:51:00;15.20;99.90
22112;DHT22;11222;50.872;4.312;2023-05-13T03:53:26;15.20;99.90
22112;DHT22;11222;50.872;4.312;2023-05-13T03:55:52;15.20;99.90
22112;DHT22;11222;50.872;4.312;2023-05-13T03:58:18;15.20;99.90
22112;DHT22;11222;50.872;4.312;2023-05-13T04:00:46;15.20;99.90
22112;DHT22;11222;50.872;4.312;2023-05-13T04:03:12;15.10;99.90
22112;DHT22;11222;50.872;4.312;2023-05-13T04:05:38;15.20;99.90
22112;DHT22;11222;50.872;4.312;2023-05-13T04:08:04;15.10;99.90
22112;DHT22;11222;50.872;4.312;2023-05-13T04:10:30;15.10;99.90
22112;DHT22;11222;50.872;4.312;2023-05-13T04:12:56;15.20;99.90
22112;DHT22;11222;50.872;4.312;2023-05-13T04:15:22;15.20;99.90
22112;DHT22;11222;50.872;4.312;2023-05-13T04:17:47;15.10;99.90
22112;DHT22;11222;50.872;4.312;2023-05-13T04:20:13;15.20;99.90
22112;DHT22;11222;50.872;4.312;2023-05-13T04:22:39;15.20;99.90
22112;DHT22;11222;50.872;4.312;2023-05-13T04:25:05;15.20;99.90
22112;DHT22;11222;50.872;4.312;2023-05-13T04:27:30;15.20;99.90
22112;DHT22;11222;50.872;4.312;2023-05-13T04:29:56;15.30;99.90
22112;DHT22;11222;50.872;4.312;2023-05-13T04:32:21;15.40;99.90
22112;DHT22;11222;50.872;4.312;2023-05-13T04:34:48;15.60;99.90
22112;DHT22;11222;50.872;4.312;2023-05-13T04:37:14;15.80;99.90
22112;DHT22;11222;50.872;4.312;2023-05-13T04:39:40;15.70;99.90
22112;DHT22;11222;50.872;4.312;2023-05-13T04:42:06;15.90;99.90
22112;DHT22;11222;50.872;4.312;2023-05-13T04:44:32;16.00;99.90
22112;DHT22;11222;50.872;4.312;2023-05-13T04:46:59;15.90;99.90
22112;DHT22;11222;50.872;4.312;2023-05-13T04:49:25;15.80;99.90
22112;DHT22;11222;50.872;4.312;2023-05-13T04:51:50;15.90;99.90
22112;DHT22;11222;50.872;4.312;2023-05-13T04:54:16;15.90;99.90
22112;DHT22;11222;50.872;4.312;2023-05-13T04:56:41;15.70;99.90
22112;DHT22;11222;50.872;4.312;2023-05-13T04:59:08;15.60;99.90
22112;DHT22;11222;50.872;4.312;2023-05-13T05:01:34;15.60;99.90
22112;DHT22;11222;50.872;4.312;2023-05-13T05:03:59;15.50;99.90
22112;DHT22;11222;50.872;4.312;2023-05-13T05:06:25;15.60;99.90
22112;DHT22;11222;50.872;4.312;2023-05-13T05:08:51;15.60;99.90
22112;DHT22;11222;50.872;4.312;2023-05-13T05:11:16;15.60;99.90
22112;DHT22;11222;50.872;4.312;2023-05-13T05:13:42;15.60;99.90
22112;DHT22;11222;50.872;4.312;2023-05-13T05:16:08;15.60;99.90
22112;DHT22;11222;50.872;4.312;2023-05-13T05:18:33;15.70;99.90
22112;DHT22;11222;50.872;4.312;2023-05-13T05:21:01;15.70;99.90
22112;DHT22;11222;50.872;4.312;2023-05-13T05:23:27;15.80;99.90
22112;DHT22;11222;50.872;4.312;2023-05-13T05:25:52;15.70;99.90
22112;DHT22;11222;50.872;4.312;2023-05-13T05:28:18;15.50;99.90
22112;DHT22;11222;50.872;4.312;2023-05-13T05:30:44;15.50;99.90
22112;DHT22;11222;50.872;4.312;2023-05-13T05:33:10;15.50;99.90
22112;DHT22;11222;50.872;4.312;2023-05-13T05:35:35;15.50;99.90
22112;DHT22;11222;50.872;4.312;2023-05-13T05:38:06;15.60;99.90
22112;DHT22;11222;50.872;4.312;2023-05-13T05:40:34;15.70;99.90
22112;DHT22;11222;50.872;4.312;2023-05-13T05:43:01;15.90;99.90
22112;DHT22;11222;50.872;4.312;2023-05-13T05:45:27;16.00;99.90
22112;DHT22;11222;50.872;4.312;2023-05-13T05:47:53;16.00;99.90
22112;DHT22;11222;50.872;4.312;2023-05-13T05:50:19;16.10;99.90
22112;DHT22;11222;50.872;4.312;2023-05-13T05:52:45;16.00;99.90
22112;DHT22;11222;50.872;4.312;2023-05-13T05:55:11;16.00;99.90
22112;DHT22;11222;50.872;4.312;2023-05-13T05:57:36;16.10;99.90
22112;DHT22;11222;50.872;4.312;2023-05-13T06:00:02;16.10;99.90
22112;DHT22;11222;50.872;4.312;2023-05-13T06:02:28;16.20;99.90
22112;DHT22;11222;50.872;4.312;2023-05-13T06:04:54;16.20;99.90
22112;DHT22;11222;50.872;4.312;2023-05-13T06:07:20;16.20;99.90
22112;DHT22;11222;50.872;4.312;2023-05-13T06:09:45;16.20;99.90
22112;DHT22;11222;50.872;4.312;2023-05-13T06:12:11;16.30;99.90
22112;DHT22;11222;50.872;4.312;2023-05-13T06:14:37;16.40;99.90
22112;DHT22;11222;50.872;4.312;2023-05-13T06:17:02;16.40;99.90
22112;DHT22;11222;50.872;4.312;2023-05-13T06:19:28;16.50;99.90
22112;DHT22;11222;50.872;4.312;2023-05-13T06:21:53;16.50;99.90
22112;DHT22;11222;50.872;4.312;2023-05-13T06:24:19;16.50;99.90
22112;DHT22;11222;50.872;4.312;2023-05-13T06:26:45;16.50;99.90
22112;DHT22;11222;50.872;4.312;2023-05-13T06:29:10;16.50;99.90
22112;DHT22;11222;50.872;4.312;2023-05-13T06:31:36;16.50;99.90
22112;DHT22;11222;50.872;4.312;2023-05-13T06:34:02;16.60;99.90
22112;DHT22;11222;50.872;4.312;2023-05-13T06:36:27;16.70;99.90
22112;DHT22;11222;50.872;4.312;2023-05-13T06:38:53;16.70;99.90
22112;DHT22;11222;50.872;4.312;2023-05-13T06:41:19;16.90;99.90
22112;DHT22;11222;50.872;4.312;2023-05-13T06:43:45;17.00;99.90
22112;DHT22;11222;50.872;4.312;2023-05-13T06:46:11;17.30;99.90
22112;DHT22;11222;50.872;4.312;2023-05-13T06:48:37;17.40;99.90
22112;DHT22;11222;50.872;4.312;2023-05-13T06:51:03;17.60;99.90
22112;DHT22;11222;50.872;4.312;2023-05-13T06:53:29;17.70;99.90
22112;DHT22;11222;50.872;4.312;2023-05-13T06:55:56;17.90;99.90
22112;DHT22;11222;50.872;4.312;2023-05-13T06:58:22;17.90;99.90
22112;DHT22;11222;50.872;4.312;2023-05-13T07:00:47;17.60;99.90
22112;DHT22;11222;50.872;4.312;2023-05-13T07:03:13;17.30;99.90
22112;DHT22;11222;50.872;4.312;2023-05-13T07:05:39;17.00;99.90
22112;DHT22;11222;50.872;4.312;2023-05-13T07:08:04;17.00;99.90
22112;DHT22;11222;50.872;4.312;2023-05-13T07:10:34;16.90;99.90
22112;DHT22;11222;50.872;4.312;2023-05-13T07:13:00;17.10;99.90
22112;DHT22;11222;50.872;4.312;2023-05-13T07:15:26;17.30;99.90
22112;DHT22;11222;50.872;4.312;2023-05-13T07:17:52;17.50;99.90
22112;DHT22;11222;50.872;4.312;2023-05-13T07:20:17;17.70;99.90
22112;DHT22;11222;50.872;4.312;2023-05-13T07:22:47;17.60;99.90
22112;DHT22;11222;50.872;4.312;2023-05-13T07:25:13;17.80;99.90
22112;DHT22;11222;50.872;4.312;2023-05-13T07:27:39;18.00;99.90
22112;DHT22;11222;50.872;4.312;2023-05-13T07:30:05;18.00;99.90
22112;DHT22;11222;50.872;4.312;2023-05-13T07:32:31;18.20;99.90
22112;DHT22;11222;50.872;4.312;2023-05-13T07:34:57;18.70;99.90
22112;DHT22;11222;50.872;4.312;2023-05-13T07:37:23;19.10;99.90
22112;DHT22;11222;50.872;4.312;2023-05-13T07:39:49;19.20;99.90
22112;DHT22;11222;50.872;4.312;2023-05-13T07:42:15;19.60;99.90
22112;DHT22;11222;50.872;4.312;2023-05-13T07:44:41;20.10;99.90
22112;DHT22;11222;50.872;4.312;2023-05-13T07:47:07;20.10;99.90
22112;DHT22;11222;50.872;4.312;2023-05-13T07:49:32;20.20;99.90
22112;DHT22;11222;50.872;4.312;2023-05-13T07:51:58;20.40;99.90
22112;DHT22;11222;50.872;4.312;2023-05-13T07:54:24;21.70;99.90
22112;DHT22;11222;50.872;4.312;2023-05-13T07:56:50;22.30;99.90
22112;DHT22;11222;50.872;4.312;2023-05-13T07:59:16;22.40;99.90
22112;DHT22;11222;50.872;4.312;2023-05-13T08:01:42;23.00;99.90
22112;DHT22;11222;50.872;4.312;2023-05-13T08:04:08;22.70;99.90
22112;DHT22;11222;50.872;4.312;2023-05-13T08:06:34;22.70;99.90
22112;DHT22;11222;50.872;4.312;2023-05-13T08:08:59;23.00;99.90
22112;DHT22;11222;50.872;4.312;2023-05-13T08:11:26;22.90;99.90
22112;DHT22;11222;50.872;4.312;2023-05-13T08:13:52;23.10;99.90
22112;DHT22;11222;50.872;4.312;2023-05-13T08:16:18;23.60;99.90
22112;DHT22;11222;50.872;4.312;2023-05-13T08:18:43;24.00;99.90
22112;DHT22;11222;50.872;4.312;2023-05-13T08:21:09;24.70;99.90
22112;DHT22;11222;50.872;4.312;2023-05-13T08:23:36;24.90;99.90
22112;DHT22;11222;50.872;4.312;2023-05-13T08:26:02;25.20;99.90
22112;DHT22;11222;50.872;4.312;2023-05-13T08:28:28;24.80;99.90
22112;DHT22;11222;50.872;4.312;2023-05-13T08:30:54;24.80;99.90
22112;DHT22;11222;50.872;4.312;2023-05-13T08:33:30;24.90;99.90
22112;DHT22;11222;50.872;4.312;2023-05-13T08:35:56;25.80;99.90
22112;DHT22;11222;50.872;4.312;2023-05-13T08:38:22;26.20;99.90
22112;DHT22;11222;50.872;4.312;2023-05-13T08:40:48;25.80;99.90
22112;DHT22;11222;50.872;4.312;2023-05-13T08:43:15;25.80;99.90
22112;DHT22;11222;50.872;4.312;2023-05-13T08:45:44;25.30;99.90
22112;DHT22;11222;50.872;4.312;2023-05-13T08:48:11;25.20;99.90
22112;DHT22;11222;50.872;4.312;2023-05-13T08:50:39;25.70;99.90
22112;DHT22;11222;50.872;4.312;2023-05-13T08:53:05;26.80;99.90
22112;DHT22;11222;50.872;4.312;2023-05-13T08:55:31;27.20;99.90
22112;DHT22;11222;50.872;4.312;2023-05-13T08:57:57;26.40;99.90
22112;DHT22;11222;50.872;4.312;2023-05-13T09:00:23;26.90;99.90
22112;DHT22;11222;50.872;4.312;2023-05-13T09:02:50;27.70;99.90
22112;DHT22;11222;50.872;4.312;2023-05-13T09:05:16;27.80;99.90
22112;DHT22;11222;50.872;4.312;2023-05-13T09:07:42;27.60;99.90
22112;DHT22;11222;50.872;4.312;2023-05-13T09:10:08;28.10;99.90
22112;DHT22;11222;50.872;4.312;2023-05-13T09:15:13;28.40;99.90
22112;DHT22;11222;50.872;4.312;2023-05-13T09:17:44;28.60;99.90
22112;DHT22;11222;50.872;4.312;2023-05-13T09:20:13;28.60;99.90
22112;DHT22;11222;50.872;4.312;2023-05-13T09:22:49;28.90;99.90
22112;DHT22;11222;50.872;4.312;2023-05-13T09:25:17;28.40;99.90
22112;DHT22;11222;50.872;4.312;2023-05-13T09:27:46;29.30;99.90
22112;DHT22;11222;50.872;4.312;2023-05-13T09:30:14;30.50;98.90
22112;DHT22;11222;50.872;4.312;2023-05-13T09:32:42;29.20;98.90
22112;DHT22;11222;50.872;4.312;2023-05-13T09:37:36;30.40;97.20
22112;DHT22;11222;50.872;4.312;2023-05-13T09:40:02;29.30;97.70
22112;DHT22;11222;50.872;4.312;2023-05-13T09:42:28;29.20;97.20
22112;DHT22;11222;50.872;4.312;2023-05-13T09:44:54;29.70;97.00
22112;DHT22;11222;50.872;4.312;2023-05-13T09:47:20;29.40;96.30
22112;DHT22;11222;50.872;4.312;2023-05-13T09:49:55;28.90;96.00
22112;DHT22;11222;50.872;4.312;2023-05-13T09:52:21;29.70;96.40
22112;DHT22;11222;50.872;4.312;2023-05-13T09:54:47;29.70;96.20
22112;DHT22;11222;50.872;4.312;2023-05-13T09:57:13;30.40;94.50
22112;DHT22;11222;50.872;4.312;2023-05-13T09:59:40;29.30;95.00
22112;DHT22;11222;50.872;4.312;2023-05-13T10:02:07;28.90;95.90
22112;DHT22;11222;50.872;4.312;2023-05-13T10:04:32;29.30;95.90
22112;DHT22;11222;50.872;4.312;2023-05-13T10:06:58;30.00;94.90
22112;DHT22;11222;50.872;4.312;2023-05-13T10:09:27;30.90;94.60
22112;DHT22;11222;50.872;4.312;2023-05-13T10:11:55;30.00;92.90
22112;DHT22;11222;50.872;4.312;2023-05-13T10:14:21;29.60;92.90
22112;DHT22;11222;50.872;4.312;2023-05-13T10:16:48;29.20;92.70
22112;DHT22;11222;50.872;4.312;2023-05-13T10:19:14;28.90;93.30
22112;DHT22;11222;50.872;4.312;2023-05-13T10:21:40;28.30;95.40
22112;DHT22;11222;50.872;4.312;2023-05-13T10:24:06;27.70;96.30
22112;DHT22;11222;50.872;4.312;2023-05-13T10:26:33;28.40;96.90
22112;DHT22;11222;50.872;4.312;2023-05-13T10:28:58;29.50;95.40
22112;DHT22;11222;50.872;4.312;2023-05-13T10:31:25;30.70;94.10
22112;DHT22;11222;50.872;4.312;2023-05-13T10:33:52;30.60;93.10
22112;DHT22;11222;50.872;4.312;2023-05-13T10:44:34;29.40;93.30
22112;DHT22;11222;50.872;4.312;2023-05-13T10:47:01;30.20;93.60
22112;DHT22;11222;50.872;4.312;2023-05-13T10:49:34;30.20;92.80
22112;DHT22;11222;50.872;4.312;2023-05-13T10:52:08;29.60;94.20
22112;DHT22;11222;50.872;4.312;2023-05-13T10:54:38;30.00;93.80
22112;DHT22;11222;50.872;4.312;2023-05-13T10:57:05;29.90;93.60
22112;DHT22;11222;50.872;4.312;2023-05-13T10:59:32;28.80;94.10
22112;DHT22;11222;50.872;4.312;2023-05-13T11:02:22;27.90;94.90
22112;DHT22;11222;50.872;4.312;2023-05-13T11:04:59;27.30;95.30
22112;DHT22;11222;50.872;4.312;2023-05-13T11:07:28;28.40;95.20
22112;DHT22;11222;50.872;4.312;2023-05-13T11:09:53;29.70;94.70
22112;DHT22;11222;50.872;4.312;2023-05-13T11:12:19;29.00;94.30
22112;DHT22;11222;50.872;4.312;2023-05-13T11:14:45;29.90;93.70
22112;DHT22;11222;50.872;4.312;2023-05-13T11:17:11;30.30;93.90
22112;DHT22;11222;50.872;4.312;2023-05-13T11:19:45;29.60;92.50
22112;DHT22;11222;50.872;4.312;2023-05-13T11:22:18;30.00;93.30
22112;DHT22;11222;50.872;4.312;2023-05-13T11:24:45;29.20;94.40
22112;DHT22;11222;50.872;4.312;2023-05-13T11:27:16;29.70;92.60
22112;DHT22;11222;50.872;4.312;2023-05-13T11:29:53;30.90;92.10
22112;DHT22;11222;50.872;4.312;2023-05-13T11:35:26;29.80;91.90
22112;DHT22;11222;50.872;4.312;2023-05-13T11:37:53;30.90;91.50
22112;DHT22;11222;50.872;4.312;2023-05-13T11:40:40;30.70;90.90
22112;DHT22;11222;50.872;4.312;2023-05-13T11:43:07;31.30;90.90
22112;DHT22;11222;50.872;4.312;2023-05-13T11:45:37;31.00;91.60
22112;DHT22;11222;50.872;4.312;2023-05-13T11:48:22;31.00;90.30
22112;DHT22;11222;50.872;4.312;2023-05-13T11:50:49;30.50;90.30
22112;DHT22;11222;50.872;4.312;2023-05-13T11:53:21;31.40;90.70
22112;DHT22;11222;50.872;4.312;2023-05-13T11:55:48;31.70;88.80
22112;DHT22;11222;50.872;4.312;2023-05-13T11:58:14;31.40;90.00
22112;DHT22;11222;50.872;4.312;2023-05-13T12:00:40;30.40;90.20
22112;DHT22;11222;50.872;4.312;2023-05-13T12:03:11;27.50;93.30
22112;DHT22;11222;50.872;4.312;2023-05-13T12:05:38;26.50;95.30
22112;DHT22;11222;50.872;4.312;2023-05-13T12:08:06;26.00;96.30
22112;DHT22;11222;50.872;4.312;2023-05-13T12:10:34;25.60;97.40
22112;DHT22;11222;50.872;4.312;2023-05-13T12:13:00;24.50;99.70
22112;DHT22;11222;50.872;4.312;2023-05-13T12:15:26;24.10;99.90
22112;DHT22;11222;50.872;4.312;2023-05-13T12:17:53;23.50;99.90
22112;DHT22;11222;50.872;4.312;2023-05-13T12:20:20;23.40;99.90
22112;DHT22;11222;50.872;4.312;2023-05-13T12:27:58;24.00;99.90
22112;DHT22;11222;50.872;4.312;2023-05-13T12:30:24;23.70;99.90
22112;DHT22;11222;50.872;4.312;2023-05-13T12:32:50;23.60;99.90
22112;DHT22;11222;50.872;4.312;2023-05-13T12:35:16;23.00;99.90
22112;DHT22;11222;50.872;4.312;2023-05-13T12:37:42;23.20;99.90
22112;DHT22;11222;50.872;4.312;2023-05-13T12:40:12;23.40;99.90
22112;DHT22;11222;50.872;4.312;2023-05-13T12:42:38;23.50;99.90
22112;DHT22;11222;50.872;4.312;2023-05-13T12:45:08;23.80;99.90
22112;DHT22;11222;50.872;4.312;2023-05-13T12:47:48;24.10;99.90
22112;DHT22;11222;50.872;4.312;2023-05-13T12:50:15;24.20;99.90
22112;DHT22;11222;50.872;4.312;2023-05-13T12:52:40;24.30;99.90
22112;DHT22;11222;50.872;4.312;2023-05-13T12:55:06;24.40;99.90
22112;DHT22;11222;50.872;4.312;2023-05-13T12:57:32;24.30;99.90
22112;DHT22;11222;50.872;4.312;2023-05-13T12:59:58;24.20;99.90
22112;DHT22;11222;50.872;4.312;2023-05-13T13:02:23;23.80;99.90
22112;DHT22;11222;50.872;4.312;2023-05-13T13:04:49;23.40;99.90
22112;DHT22;11222;50.872;4.312;2023-05-13T13:07:15;23.40;99.90
22112;DHT22;11222;50.872;4.312;2023-05-13T13:09:41;23.60;99.90
22112;DHT22;11222;50.872;4.312;2023-05-13T13:12:07;23.40;99.90
22112;DHT22;11222;50.872;4.312;2023-05-13T13:14:33;23.20;99.90
22112;DHT22;11222;50.872;4.312;2023-05-13T13:16:59;23.00;99.90
22112;DHT22;11222;50.872;4.312;2023-05-13T13:19:24;23.00;99.90
22112;DHT22;11222;50.872;4.312;2023-05-13T13:21:50;22.80;99.90
22112;DHT22;11222;50.872;4.312;2023-05-13T13:24:16;22.90;99.90
22112;DHT22;11222;50.872;4.312;2023-05-13T13:26:41;22.90;99.90
22112;DHT22;11222;50.872;4.312;2023-05-13T13:29:07;22.90;99.90
22112;DHT22;11222;50.872;4.312;2023-05-13T13:31:33;22.80;99.90
22112;DHT22;11222;50.872;4.312;2023-05-13T13:33:58;22.90;99.90
22112;DHT22;11222;50.872;4.312;2023-05-13T13:36:28;22.60;99.90
22112;DHT22;11222;50.872;4.312;2023-05-13T13:38:57;22.70;99.90
22112;DHT22;11222;50.872;4.312;2023-05-13T13:41:23;22.70;99.90
22112;DHT22;11222;50.872;4.312;2023-05-13T13:43:50;22.50;99.90
22112;DHT22;11222;50.872;4.312;2023-05-13T13:46:16;22.50;99.90
22112;DHT22;11222;50.872;4.312;2023-05-13T13:48:42;22.50;99.90
22112;DHT22;11222;50.872;4.312;2023-05-13T13:51:07;22.60;99.90
22112;DHT22;11222;50.872;4.312;2023-05-13T13:53:33;22.70;99.90
22112;DHT22;11222;50.872;4.312;2023-05-13T13:55:59;23.10;99.90
22112;DHT22;11222;50.872;4.312;2023-05-13T13:58:25;23.10;99.90
22112;DHT22;11222;50.872;4.312;2023-05-13T14:00:51;23.20;99.90
22112;DHT22;11222;50.872;4.312;2023-05-13T14:03:17;22.90;99.90
22112;DHT22;11222;50.872;4.312;2023-05-13T14:05:43;22.70;99.90
22112;DHT22;11222;50.872;4.312;2023-05-13T14:08:08;22.70;99.90
22112;DHT22;11222;50.872;4.312;2023-05-13T14:10:34;22.70;99.90
22112;DHT22;11222;50.872;4.312;2023-05-13T14:13:00;22.90;99.90
22112;DHT22;11222;50.872;4.312;2023-05-13T14:15:25;23.00;99.90
22112;DHT22;11222;50.872;4.312;2023-05-13T14:17:54;23.00;99.90
22112;DHT22;11222;50.872;4.312;2023-05-13T14:20:20;22.80;99.90
22112;DHT22;11222;50.872;4.312;2023-05-13T14:22:47;22.70;99.90
22112;DHT22;11222;50.872;4.312;2023-05-13T14:25:13;22.30;99.90
22112;DHT22;11222;50.872;4.312;2023-05-13T14:27:39;22.10;99.90
22112;DHT22;11222;50.872;4.312;2023-05-13T14:30:05;22.00;99.90
22112;DHT22;11222;50.872;4.312;2023-05-13T14:32:32;22.00;99.90
22112;DHT22;11222;50.872;4.312;2023-05-13T14:34:57;22.00;99.90
22112;DHT22;11222;50.872;4.312;2023-05-13T14:37:23;22.20;99.90
22112;DHT22;11222;50.872;4.312;2023-05-13T14:39:49;22.20;99.90
22112;DHT22;11222;50.872;4.312;2023-05-13T14:42:15;22.30;99.90
22112;DHT22;11222;50.872;4.312;2023-05-13T14:44:41;22.20;99.90
22112;DHT22;11222;50.872;4.312;2023-05-13T14:47:07;22.30;99.90
22112;DHT22;11222;50.872;4.312;2023-05-13T14:49:33;22.30;99.90
22112;DHT22;11222;50.872;4.312;2023-05-13T14:52:02;22.40;99.90
22112;DHT22;11222;50.872;4.312;2023-05-13T14:54:33;22.30;99.90
22112;DHT22;11222;50.872;4.312;2023-05-13T14:57:01;22.20;99.90
22112;DHT22;11222;50.872;4.312;2023-05-13T14:59:26;21.90;99.90
22112;DHT22;11222;50.872;4.312;2023-05-13T15:01:54;22.00;99.90
22112;DHT22;11222;50.872;4.312;2023-05-13T15:04:20;22.00;99.90
22112;DHT22;11222;50.872;4.312;2023-05-13T15:06:45;22.00;99.90
22112;DHT22;11222;50.872;4.312;2023-05-13T15:09:11;22.00;99.90
22112;DHT22;11222;50.872;4.312;2023-05-13T15:11:37;22.00;99.90
22112;DHT22;11222;50.872;4.312;2023-05-13T15:14:03;21.70;99.90
22112;DHT22;11222;50.872;4.312;2023-05-13T15:16:30;21.80;99.90
22112;DHT22;11222;50.872;4.312;2023-05-13T15:18:56;21.90;99.90
22112;DHT22;11222;50.872;4.312;2023-05-13T15:21:22;21.90;99.90
22112;DHT22;11222;50.872;4.312;2023-05-13T15:23:47;21.90;99.90
22112;DHT22;11222;50.872;4.312;2023-05-13T15:26:13;21.80;99.90
22112;DHT22;11222;50.872;4.312;2023-05-13T15:28:39;21.90;99.90
22112;DHT22;11222;50.872;4.312;2023-05-13T15:31:05;21.70;99.90
22112;DHT22;11222;50.872;4.312;2023-05-13T15:33:31;21.80;99.90
22112;DHT22;11222;50.872;4.312;2023-05-13T15:35:57;21.90;99.90
22112;DHT22;11222;50.872;4.312;2023-05-13T15:38:23;21.90;99.90
22112;DHT22;11222;50.872;4.312;2023-05-13T15:40:49;21.90;99.90
22112;DHT22;11222;50.872;4.312;2023-05-13T15:43:15;21.80;99.90
22112;DHT22;11222;50.872;4.312;2023-05-13T15:45:40;21.90;99.90
22112;DHT22;11222;50.872;4.312;2023-05-13T15:48:06;21.60;99.90
22112;DHT22;11222;50.872;4.312;2023-05-13T15:50:32;21.40;99.90
22112;DHT22;11222;50.872;4.312;2023-05-13T15:52:58;21.40;99.90
22112;DHT22;11222;50.872;4.312;2023-05-13T15:55:24;21.50;99.90
22112;DHT22;11222;50.872;4.312;2023-05-13T15:57:50;21.70;99.90